Time;durP1;ratioP1;P1;durP2;ratioP2;P2;SDS_P1;SDS_P2;PMS_P1;PMS_P2;Temp;Humidity;BMP_temperature;BMP_pressure;BME280_temperature;BME280_humidity;BME280_pressure;Samples;Min_cycle;Max_cycle;Signal;HPM_P1;HPM_P2
2022/07/15 00:01:14;;;;;;;3.37;2.75;;;;;;;15.28;100.00;99230.04;1773693;81;21042;-73
2022/07/15 00:03:41;;;;;;;5.72;2.90;;;;;;;15.27;100.00;99226.17;1773575;81;21520;-74
2022/07/15 00:06:08;;;;;;;6.12;3.10;;;;;;;15.26;100.00;99223.13;1773914;81;20995;-74
2022/07/15 00:08:36;;;;;;;4.65;2.90;;;;;;;15.24;100.00;99222.52;1745228;81;21477;-75
2022/07/15 00:11:03;;;;;;;4.10;2.98;;;;;;;15.21;100.00;99221.59;1773975;81;21015;-74
2022/07/15 00:13:31;;;;;;;5.80;3.22;;;;;;;15.19;100.00;99217.22;1805710;79;21461;-74
2022/07/15 00:15:58;;;;;;;5.55;2.85;;;;;;;15.17;100.00;99212.53;1805914;79;21565;-75
2022/07/15 00:18:26;;;;;;;4.30;2.90;;;;;;;15.18;100.00;99214.72;1805605;79;21023;-75
2022/07/15 00:20:53;;;;;;;3.77;3.25;;;;;;;15.18;100.00;99216.90;1806166;79;21058;-74
2022/07/15 00:23:22;;;;;;;5.22;2.90;;;;;;;15.19;100.00;99212.28;1805936;79;21075;-74
2022/07/15 00:25:49;;;;;;;3.25;2.92;;;;;;;15.20;100.00;99212.59;1805616;79;21033;-74
2022/07/15 00:28:17;;;;;;;4.08;3.17;;;;;;;15.19;100.00;99212.28;1806918;79;21050;-75
2022/07/15 00:30:44;;;;;;;3.72;3.10;;;;;;;15.14;100.00;99203.43;1779620;76;21007;-75
2022/07/15 00:33:11;;;;;;;5.83;3.30;;;;;;;15.14;100.00;99203.43;1806181;79;21043;-73
2022/07/15 00:35:38;;;;;;;5.75;3.05;;;;;;;15.12;100.00;99202.83;1794544;79;21056;-74
2022/07/15 00:38:09;;;;;;;6.17;2.80;;;;;;;15.11;100.00;99200.31;1794480;80;20980;-75
2022/07/15 00:40:47;;;;;;;6.58;3.50;;;;;;;15.06;100.00;99198.25;1734560;83;21070;-75
2022/07/15 00:43:18;;;;;;;3.35;2.72;;;;;;;15.03;100.00;99200.04;1654323;85;21006;-74
2022/07/15 00:45:45;;;;;;;6.85;3.17;;;;;;;15.03;100.00;99200.04;1676693;85;21042;-74
2022/07/15 00:48:12;;;;;;;4.70;2.85;;;;;;;15.03;100.00;99195.95;1676979;85;20994;-74
2022/07/15 00:50:39;;;;;;;5.10;3.02;;;;;;;15.00;100.00;99186.89;1676825;85;21026;-74
2022/07/15 00:53:18;;;;;;;3.75;3.27;;;;;;;14.94;100.00;99182.31;1676585;85;21519;-74
2022/07/15 00:55:45;;;;;;;4.67;3.10;;;;;;;14.94;100.00;99182.31;1675624;85;21032;-74
2022/07/15 00:58:18;;;;;;;3.60;2.98;;;;;;;14.90;100.00;99186.00;1654448;85;21097;-74
2022/07/15 01:00:47;;;;;;;4.42;3.17;;;;;;;14.85;100.00;99184.47;1676943;85;21129;-74
2022/07/15 01:03:16;;;;;;;5.58;2.85;;;;;;;14.85;100.00;99181.75;1675607;85;21086;-75
2022/07/15 01:05:43;;;;;;;4.92;3.00;;;;;;;14.83;100.00;99183.03;1677035;85;21054;-74
2022/07/15 01:08:10;;;;;;;5.95;3.10;;;;;;;14.83;100.00;99180.31;1676978;85;21022;-74
2022/07/15 01:10:37;;;;;;;3.90;3.10;;;;;;;14.80;100.00;99175.63;1676983;85;21006;-74
2022/07/15 01:13:04;;;;;;;3.98;3.15;;;;;;;14.80;100.00;99174.27;1653408;86;21547;-74
2022/07/15 01:15:32;;;;;;;4.65;3.00;;;;;;;14.78;100.00;99172.80;1676250;86;21041;-75
2022/07/15 01:18:01;;;;;;;4.95;3.45;;;;;;;14.76;100.00;99172.19;1676315;86;21038;-74
2022/07/15 01:20:31;;;;;;;5.53;3.50;;;;;;;14.74;100.00;99163.41;1676447;86;21042;-74
2022/07/15 01:23:00;;;;;;;5.87;2.87;;;;;;;14.73;100.00;99152.21;1676275;86;21100;-74
2022/07/15 01:25:29;;;;;;;7.20;3.10;;;;;;;14.70;100.00;99148.59;1594853;89;21620;-74
2022/07/15 01:27:57;;;;;;;5.95;2.92;;;;;;;14.73;100.00;99146.77;1594693;90;21077;-74
2022/07/15 01:30:26;;;;;;;5.72;3.15;;;;;;;14.73;100.00;99146.77;1594857;90;21614;-74
2022/07/15 01:32:53;;;;;;;6.03;3.20;;;;;;;14.72;100.00;99144.58;1594624;90;21117;-74
2022/07/15 01:35:21;;;;;;;6.22;3.17;;;;;;;14.72;100.00;99145.12;1598498;88;21074;-74
2022/07/15 01:37:50;;;;;;;4.60;2.70;;;;;;;14.71;100.00;99136.64;1599670;90;21105;-74
2022/07/15 01:40:18;;;;;;;3.45;3.15;;;;;;;14.70;100.00;99139.89;1599248;88;21576;-74
2022/07/15 01:42:45;;;;;;;4.03;2.90;;;;;;;14.65;100.00;99135.63;1600418;88;21108;-73
2022/07/15 01:45:14;;;;;;;5.42;3.33;;;;;;;14.60;100.00;99134.09;1616198;89;20999;-75
2022/07/15 01:47:48;;;;;;;7.20;3.35;;;;;;;14.60;100.00;99134.09;1616251;89;21101;-75
2022/07/15 01:50:17;;;;;;;7.37;3.27;;;;;;;14.60;100.00;99134.09;1616213;89;21058;-75
2022/07/15 01:52:55;;;;;;;8.15;3.45;;;;;;;14.60;100.00;99131.38;1616216;88;21117;-74
2022/07/15 01:55:23;;;;;;;7.35;3.58;;;;;;;14.61;100.00;99133.05;1607392;88;21088;-74
2022/07/15 01:57:50;;;;;;;4.92;3.45;;;;;;;14.61;100.00;99120.27;1623133;88;21077;-74
2022/07/15 02:00:18;;;;;;;6.78;3.42;;;;;;;14.63;100.00;99120.06;1623317;88;21033;-74
2022/07/15 02:02:46;;;;;;;7.75;3.40;;;;;;;14.65;100.00;99118.48;1623122;88;21590;-75
2022/07/15 02:05:16;;;;;;;6.50;3.98;;;;;;;14.68;100.00;99109.86;1623137;88;21052;-74
2022/07/15 02:07:45;;;;;;;8.88;3.83;;;;;;;14.72;100.00;99114.66;1622962;88;21057;-74
2022/07/15 02:10:14;;;;;;;6.72;3.15;;;;;;;14.75;100.00;99103.33;1623319;88;21045;-74
2022/07/15 02:12:43;;;;;;;10.00;3.95;;;;;;;14.78;100.00;99106.98;1642498;87;21025;-75
2022/07/15 02:15:11;;;;;;;8.75;3.95;;;;;;;14.81;100.00;99106.52;1680255;84;21046;-74
2022/07/15 02:17:43;;;;;;;9.93;4.10;;;;;;;14.83;100.00;99103.58;1707789;84;21052;-75
2022/07/15 02:20:11;;;;;;;6.53;3.87;;;;;;;14.84;100.00;99104.40;1711119;84;21001;-75
2022/07/15 02:22:38;;;;;;;6.75;3.60;;;;;;;14.84;100.00;99096.23;1709804;84;21033;-74
2022/07/15 02:25:06;;;;;;;5.30;3.10;;;;;;;14.81;100.00;99098.35;1709622;84;20997;-74
2022/07/15 02:27:33;;;;;;;6.65;2.92;;;;;;;14.83;100.00;99104.94;1710914;79;21029;-74
2022/07/15 02:30:00;;;;;;;7.37;3.10;;;;;;;14.85;100.00;99101.46;1804433;79;21053;-74
2022/07/15 02:32:29;;;;;;;6.15;3.15;;;;;;;14.89;100.00;99105.42;1800283;79;21074;-75
2022/07/15 02:34:58;;;;;;;5.70;2.80;;;;;;;14.93;100.00;99097.65;1804338;79;21028;-74
2022/07/15 02:37:27;;;;;;;5.67;3.00;;;;;;;14.96;100.00;99095.82;1803820;79;21055;-74
2022/07/15 02:39:56;;;;;;;4.08;2.98;;;;;;;14.97;100.00;99106.48;1779770;79;21074;-75
2022/07/15 02:42:25;;;;;;;5.15;2.80;;;;;;;14.99;100.00;99105.73;1779195;79;20997;-75
2022/07/15 02:44:53;;;;;;;7.45;3.20;;;;;;;15.01;100.00;99102.80;1803937;79;21489;-74
2022/07/15 02:47:21;;;;;;;6.50;3.20;;;;;;;15.02;100.00;99101.75;1804070;79;21011;-74
2022/07/15 02:49:48;;;;;;;6.58;3.08;;;;;;;15.03;100.00;99099.31;1803977;79;20999;-75
2022/07/15 02:52:16;;;;;;;6.58;3.12;;;;;;;15.04;100.00;99100.99;1803667;79;21035;-75
2022/07/15 02:54:45;;;;;;;9.45;3.83;;;;;;;15.07;100.00;99105.14;1803799;79;21473;-75
2022/07/15 02:57:13;;;;;;;7.87;3.45;;;;;;;15.10;100.00;99109.65;1779386;79;21007;-74
2022/07/15 02:59:40;;;;;;;12.13;4.12;;;;;;;15.14;100.00;99110.86;1803868;79;21054;-74
2022/07/15 03:02:08;;;;;;;5.62;3.22;;;;;;;15.16;100.00;99109.27;1803852;79;21504;-75
2022/07/15 03:04:35;;;;;;;6.40;2.90;;;;;;;15.21;100.00;99113.52;1803694;79;21097;-75
2022/07/15 03:07:02;;;;;;;7.35;3.00;;;;;;;15.21;100.00;99113.52;1804015;79;20975;-75
2022/07/15 03:09:31;;;;;;;6.12;2.55;;;;;;;15.28;100.00;99118.38;1779243;79;21576;-74
2022/07/15 03:11:58;;;;;;;7.60;2.92;;;;;;;15.33;100.00;99124.49;1802524;79;21074;-75
2022/07/15 03:14:26;;;;;;;6.10;2.67;;;;;;;15.38;100.00;99126.02;1800812;80;21568;-74
2022/07/15 03:16:53;;;;;;;3.00;2.70;;;;;;;15.43;100.00;99126.18;1800608;80;21050;-75
2022/07/15 03:19:22;;;;;;;4.42;2.47;;;;;;;15.49;100.00;99133.97;1800967;80;20984;-75
2022/07/15 03:21:50;;;;;;;5.25;2.77;;;;;;;15.56;100.00;99140.19;1800536;80;21670;-75
2022/07/15 03:24:18;;;;;;;4.35;2.98;;;;;;;15.61;100.00;99132.70;1800819;80;21457;-75
2022/07/15 03:26:46;;;;;;;8.20;3.50;;;;;;;15.67;100.00;99141.33;1801104;80;21014;-74
2022/07/15 03:29:15;;;;;;;5.08;3.50;;;;;;;15.72;100.00;99135.53;1800818;79;21008;-75
2022/07/15 03:31:43;;;;;;;7.33;3.92;;;;;;;15.78;100.00;99141.98;1776288;80;21548;-75
2022/07/15 03:34:10;;;;;;;6.62;3.70;;;;;;;15.86;100.00;99146.30;1776260;79;21134;-74
2022/07/15 03:36:38;;;;;;;5.67;3.25;;;;;;;15.94;100.00;99148.73;1774386;79;21041;-74
2022/07/15 03:39:06;;;;;;;7.70;3.40;;;;;;;16.08;100.00;99142.59;1803437;79;21079;-74
2022/07/15 03:41:34;;;;;;;5.28;3.70;;;;;;;16.08;100.00;99142.59;1803660;79;21020;-74
2022/07/15 03:44:02;;;;;;;10.55;3.90;;;;;;;16.17;100.00;99148.02;1803623;79;21050;-74
2022/07/15 03:46:29;;;;;;;4.80;3.42;;;;;;;16.24;100.00;99147.95;1774247;79;21023;-75
2022/07/15 03:48:58;;;;;;;7.20;3.50;;;;;;;16.28;100.00;99149.14;1803790;79;20987;-75
2022/07/15 03:51:30;;;;;;;8.83;3.65;;;;;;;16.31;100.00;99146.78;1803750;79;21021;-75
2022/07/15 03:53:55;;;;;;;8.40;3.58;;;;;;;16.38;100.00;99151.30;1799296;79;21035;-75
2022/07/15 03:56:22;;;;;;;5.08;3.20;;;;;;;16.43;100.00;99151.44;1800743;80;20988;-75
2022/07/15 03:58:49;;;;;;;12.63;3.55;;;;;;;16.47;100.00;99156.22;1800565;80;21469;-76
2022/07/15 04:01:16;;;;;;;6.78;3.50;;;;;;;16.53;100.00;99168.10;1800430;80;21039;-74
2022/07/15 04:03:43;;;;;;;8.08;3.70;;;;;;;16.60;100.00;99171.56;1800841;80;21019;-74
2022/07/15 04:06:10;;;;;;;4.78;3.25;;;;;;;16.68;100.00;99177.25;1803451;79;21062;-75
2022/07/15 04:08:39;;;;;;;9.30;3.75;;;;;;;16.76;100.00;99186.45;1801297;80;21015;-74
2022/07/15 04:11:07;;;;;;;8.43;4.28;;;;;;;16.84;100.00;99183.44;1800849;80;20956;-75
2022/07/15 04:13:35;;;;;;;7.60;4.35;;;;;;;16.91;100.00;99187.44;1829850;78;21027;-75
2022/07/15 04:16:03;;;;;;;7.95;4.60;;;;;;;16.98;100.00;99196.88;1801756;78;21057;-75
2022/07/15 04:18:30;;;;;;;8.23;4.50;;;;;;;17.03;100.00;99200.59;1829930;78;21037;-75
2022/07/15 04:20:57;;;;;;;7.08;4.40;;;;;;;17.11;100.00;99204.05;1830211;78;20974;-76
2022/07/15 04:23:25;;;;;;;5.15;4.20;;;;;;;17.22;100.00;99208.70;1830076;78;21072;-75
2022/07/15 04:25:52;;;;;;;7.15;4.25;;;;;;;17.35;100.00;99203.54;1830588;78;20974;-75
2022/07/15 04:28:20;;;;;;;4.97;4.15;;;;;;;17.54;100.00;99206.47;1830491;78;21032;-75
2022/07/15 04:30:49;;;;;;;5.62;3.90;;;;;;;17.77;100.00;99205.63;1830442;78;21013;-73
2022/07/15 04:33:19;;;;;;;6.30;3.95;;;;;;;18.02;100.00;99201.32;1829908;78;21003;-74
2022/07/15 04:35:46;;;;;;;9.38;4.58;;;;;;;18.31;100.00;99204.11;1830209;78;21026;-75
2022/07/15 04:38:14;;;;;;;6.50;3.92;;;;;;;18.58;100.00;99214.49;1830436;78;21006;-75
2022/07/15 04:40:42;;;;;;;9.80;4.17;;;;;;;18.83;100.00;99221.56;1830194;78;20954;-74
2022/07/15 04:43:10;;;;;;;7.87;4.10;;;;;;;19.08;100.00;99233.53;1830184;78;21010;-76
2022/07/15 04:45:37;;;;;;;8.33;4.28;;;;;;;19.34;100.00;99249.88;1830336;78;20978;-75
2022/07/15 04:50:45;;;;;;;6.60;4.00;;;;;;;19.57;100.00;99257.12;1775354;78;21010;-74
2022/07/15 04:50:51;;;;;;;8.10;4.42;;;;;;;19.82;100.00;99270.43;1826258;78;20954;-74
2022/07/15 04:53:16;;;;;;;7.37;4.40;;;;;;;20.05;100.00;99282.30;1829827;78;20990;-74
2022/07/15 04:55:46;;;;;;;8.33;4.20;;;;;;;20.28;100.00;99301.84;1830158;78;20975;-74
2022/07/15 04:58:14;;;;;;;9.13;4.37;;;;;;;20.51;100.00;99323.30;1830153;78;21515;-75
2022/07/15 05:00:44;;;;;;;14.68;4.62;;;;;;;20.73;100.00;99338.44;1801490;78;20990;-74
2022/07/15 05:03:14;;;;;;;11.38;4.67;;;;;;;20.92;100.00;99356.27;1775923;78;21038;-74
2022/07/15 05:05:42;;;;;;;7.70;5.00;;;;;;;21.12;100.00;99368.59;1829849;78;21025;-74
2022/07/15 05:08:10;;;;;;;10.20;5.33;;;;;;;21.28;100.00;99382.80;1830492;78;21033;-74
2022/07/15 05:10:42;;;;;;;11.38;5.53;;;;;;;21.43;100.00;99402.78;1825670;78;21037;-73
2022/07/15 05:13:09;;;;;;;7.65;4.87;;;;;;;21.55;100.00;99419.17;1775627;79;21086;-74
2022/07/15 05:15:36;;;;;;;12.30;5.58;;;;;;;21.68;100.00;99429.75;1772381;79;21027;-74
2022/07/15 05:18:07;;;;;;;8.28;5.58;;;;;;;21.82;100.00;99452.74;1799919;78;21622;-73
2022/07/15 05:20:34;;;;;;;11.38;5.45;;;;;;;21.94;100.00;99461.67;1824859;78;21011;-73
2022/07/15 05:23:03;;;;;;;10.00;5.50;;;;;;;22.11;100.00;99461.54;1828480;78;21081;-72
2022/07/15 05:25:32;;;;;;;12.23;6.00;;;;;;;22.29;100.00;99477.72;1823581;78;21034;-75
2022/07/15 05:27:59;;;;;;;9.80;4.90;;;;;;;22.48;100.00;99485.58;1829910;78;21018;-73
2022/07/15 05:30:26;;;;;;;9.43;4.87;;;;;;;22.68;100.00;99497.30;1829643;78;21170;-71
2022/07/15 05:32:55;;;;;;;9.60;4.65;;;;;;;22.86;100.00;99517.56;1799522;78;21001;-70
2022/07/15 05:35:24;;;;;;;8.95;4.50;;;;;;;23.01;100.00;99539.43;1821229;78;21070;-71
2022/07/15 05:37:52;;;;;;;8.93;5.05;;;;;;;23.19;100.00;99545.09;1813300;79;21468;-72
2022/07/15 05:40:21;;;;;;;10.10;4.90;;;;;;;23.44;100.00;99539.72;1810601;79;21033;-71
2022/07/15 05:42:51;;;;;;;9.15;4.95;;;;;;;23.71;100.00;99541.49;1789791;79;21030;-71
2022/07/15 05:45:18;;;;;;;10.30;4.85;;;;;;;23.92;100.00;99557.62;1789747;79;21066;-72
2022/07/15 05:47:50;;;;;;;8.55;4.58;;;;;;;23.98;100.00;99585.51;1814516;79;21046;-75
2022/07/15 05:50:20;;;;;;;7.62;4.60;;;;;;;24.00;100.00;99591.58;1812535;79;21030;-73
2022/07/15 05:52:48;;;;;;;7.62;4.33;;;;;;;24.09;100.00;99596.03;1800637;80;20966;-72
2022/07/15 05:55:15;;;;;;;9.23;4.62;;;;;;;24.15;100.00;99599.63;1799194;79;21122;-74
2022/07/15 05:57:42;;;;;;;12.15;5.15;;;;;;;24.14;100.00;99614.56;1798136;80;20974;-73
2022/07/15 06:00:11;;;;;;;10.55;4.90;;;;;;;24.14;100.00;99615.95;1798367;80;21001;-74
2022/07/15 06:02:41;;;;;;;17.27;5.95;;;;;;;24.25;100.00;99612.92;1798059;80;21017;-73
2022/07/15 06:05:11;;;;;;;8.75;4.90;;;;;;;24.52;100.00;99616.58;1808055;78;21067;-73
2022/07/15 06:07:41;;;;;;;10.80;4.95;;;;;;;24.82;100.00;99624.10;1771039;80;21025;-72
2022/07/15 06:10:10;;;;;;;9.10;5.12;;;;;;;25.12;100.00;99632.95;1796560;80;21010;-75
2022/07/15 06:12:37;;;;;;;13.43;6.80;;;;;;;25.39;100.00;99647.06;1786895;80;21071;-73
2022/07/15 06:15:06;;;;;;;9.35;5.60;;;;;;;25.58;100.00;99645.93;1781605;80;21628;-75
2022/07/15 06:17:34;;;;;;;11.93;5.08;;;;;;;25.82;100.00;99653.08;1792535;80;22232;-75
2022/07/15 06:20:01;;;;;;;7.53;4.95;;;;;;;26.01;100.00;99671.86;1770284;80;21013;-74
2022/07/15 06:22:29;;;;;;;9.28;5.00;;;;;;;26.20;100.00;99681.20;1797987;80;21550;-75
2022/07/15 06:24:56;;;;;;;8.05;4.70;;;;;;;26.43;100.00;99680.28;1798399;80;21013;-74
2022/07/15 06:27:23;;;;;;;7.00;4.80;;;;;;;26.64;100.00;99683.23;1798267;80;20967;-76
2022/07/15 06:29:51;;;;;;;12.45;4.87;;;;;;;26.90;100.00;99690.83;1771922;80;20977;-76
2022/07/15 06:32:18;;;;;;;7.97;4.87;;;;;;;27.14;100.00;99710.91;1772690;80;20954;-76
2022/07/15 06:34:45;;;;;;;10.30;4.60;;;;;;;27.38;100.00;99744.34;1769966;79;21073;-75
2022/07/15 06:37:12;;;;;;;6.37;4.15;;;;;;;27.55;100.00;99769.45;1804363;79;20994;-74
2022/07/15 06:39:39;;;;;;;6.42;4.22;;;;;;;27.68;100.00;99805.47;1803814;79;21022;-73
2022/07/15 06:42:06;;;;;;;8.48;4.28;;;;;;;27.84;100.00;99834.77;1773922;79;21050;-75
2022/07/15 06:44:35;;;;;;;11.10;4.28;;;;;;;27.94;100.00;99843.59;1803409;79;21076;-75
2022/07/15 06:47:06;;;;;;;5.65;3.80;;;;;;;28.07;100.00;99847.66;1799085;79;20990;-72
2022/07/15 06:49:34;;;;;;;8.15;4.05;;;;;;;28.24;100.00;99854.16;1803960;79;21041;-75
2022/07/15 06:52:02;;;;;;;5.97;3.90;;;;;;;28.35;100.00;99861.28;1774777;79;21053;-74
2022/07/15 06:54:29;;;;;;;7.97;4.20;;;;;;;28.39;100.00;99868.72;1804087;79;21028;-74
2022/07/15 06:56:59;;;;;;;9.95;4.10;;;;;;;28.54;100.00;99871.95;1807410;79;21463;-73
2022/07/15 06:59:26;;;;;;;5.42;3.67;;;;;;;28.74;100.00;99868.09;1806284;79;21079;-73
2022/07/15 07:01:56;;;;;;;6.25;3.83;;;;;;;28.89;100.00;99873.20;1805861;79;21072;-76
2022/07/15 07:04:23;;;;;;;7.08;3.70;;;;;;;29.01;100.00;99870.83;1806204;79;21094;-74
2022/07/15 07:06:50;;;;;;;7.47;3.83;;;;;;;29.17;100.00;99879.83;1807702;79;21385;-73
2022/07/15 07:09:18;;;;;;;18.05;10.78;;;;;;;29.24;100.00;99887.82;1814193;79;21075;-72
2022/07/15 07:11:45;;;;;;;5.80;3.42;;;;;;;29.35;100.00;99879.58;1771665;79;20967;-74
2022/07/15 07:14:15;;;;;;;7.33;3.33;;;;;;;29.51;100.00;99884.36;1777678;78;20973;-75
2022/07/15 07:16:42;;;;;;;7.28;3.15;;;;;;;29.50;100.00;99892.44;1806091;79;21469;-74
2022/07/15 07:19:09;;;;;;;5.92;2.80;;;;;;;29.50;100.00;99890.50;1814209;79;21006;-73
2022/07/15 07:21:36;;;;;;;8.68;3.35;;;;;;;29.65;100.00;99883.86;1822304;79;20986;-74
2022/07/15 07:24:04;;;;;;;3.67;3.00;;;;;;;29.90;100.00;99889.61;1797414;79;20985;-74
2022/07/15 07:26:32;;;;;;;6.78;2.90;;;;;;;30.08;98.17;99883.77;1774880;79;21625;-74
2022/07/15 07:28:59;;;;;;;7.53;2.95;;;;;;;30.29;94.51;99886.98;1771766;80;21026;-75
2022/07/15 07:31:26;;;;;;;5.37;3.02;;;;;;;30.44;91.30;99880.35;1804996;79;21053;-74
2022/07/15 07:33:55;;;;;;;4.87;2.70;;;;;;;30.55;86.76;99878.77;1777650;79;20985;-74
2022/07/15 07:36:22;;;;;;;3.60;2.92;;;;;;;30.67;90.41;99883.27;1804681;79;21029;-75
2022/07/15 07:38:49;;;;;;;6.03;2.90;;;;;;;30.83;88.85;99883.79;1805274;79;21009;-73
2022/07/15 07:41:16;;;;;;;4.00;2.90;;;;;;;31.00;83.44;99874.22;1790756;78;20944;-76
2022/07/15 07:43:44;;;;;;;5.97;3.10;;;;;;;31.06;77.24;99885.28;1802526;79;21014;-76
2022/07/15 07:46:12;;;;;;;9.63;4.03;;;;;;;30.97;69.47;99876.27;1800786;79;21088;-76
2022/07/15 07:48:40;;;;;;;8.65;3.80;;;;;;;30.94;72.72;99874.66;1800214;80;21033;-75
2022/07/15 07:51:08;;;;;;;9.23;3.60;;;;;;;31.07;74.69;99872.41;1801966;79;20949;-75
2022/07/15 07:53:35;;;;;;;5.22;3.00;;;;;;;31.27;77.09;99878.13;1804555;79;20966;-74
2022/07/15 07:56:05;;;;;;;6.58;3.00;;;;;;;31.45;69.82;99873.53;1773676;79;21498;-75
2022/07/15 07:58:32;;;;;;;5.42;3.15;;;;;;;31.39;66.44;99874.77;1773591;79;21474;-74
2022/07/15 08:00:59;;;;;;;7.58;3.60;;;;;;;31.21;67.64;99872.39;1804547;79;20994;-75
2022/07/15 08:03:27;;;;;;;6.00;3.05;;;;;;;31.20;71.21;99876.31;1816126;78;20958;-75
2022/07/15 08:05:55;;;;;;;4.47;3.02;;;;;;;31.31;67.70;99867.98;1807896;78;20947;-74
2022/07/15 08:08:23;;;;;;;3.22;2.95;;;;;;;31.38;64.34;99879.55;1812040;78;21000;-75
2022/07/15 08:10:53;;;;;;;4.22;2.92;;;;;;;31.45;64.51;99874.93;1817088;78;21547;-69
2022/07/15 08:13:21;;;;;;;4.72;2.98;;;;;;;31.59;65.44;99870.15;1811078;78;21029;-72
2022/07/15 08:15:49;;;;;;;6.33;3.00;;;;;;;31.81;66.85;99860.70;1829511;78;21082;-72
2022/07/15 08:18:16;;;;;;;3.30;3.00;;;;;;;31.93;67.23;99864.56;1799987;78;21104;-76
2022/07/15 08:20:43;;;;;;;4.25;3.27;;;;;;;32.06;67.99;99855.05;1828756;78;20999;-73
2022/07/15 08:23:11;;;;;;;8.55;3.40;;;;;;;32.19;65.20;99856.11;1808867;78;21029;-75
2022/07/15 08:25:38;;;;;;;12.15;3.62;;;;;;;32.16;59.57;99850.59;1828961;78;21041;-74
2022/07/15 08:28:06;;;;;;;4.67;3.12;;;;;;;32.02;59.61;99854.84;1828014;78;21057;-75
2022/07/15 08:30:34;;;;;;;6.78;3.83;;;;;;;31.95;64.99;99841.87;1772735;79;21488;-76
2022/07/15 08:33:02;;;;;;;7.62;5.75;;;;;;;32.10;66.24;99841.52;1772861;79;21078;-73
2022/07/15 08:35:30;;;;;;;5.90;4.17;;;;;;;32.19;62.64;99837.92;1772534;79;20994;-74
2022/07/15 08:37:57;;;;;;;10.30;6.70;;;;;;;32.33;65.37;99839.50;1797318;80;20987;-73
2022/07/15 08:40:26;;;;;;;3.98;3.20;;;;;;;32.45;64.63;99830.48;1762491;80;21044;-74
2022/07/15 08:42:53;;;;;;;3.60;3.05;;;;;;;32.53;62.39;99840.08;1765318;80;21063;-73
2022/07/15 08:45:22;;;;;;;22.30;16.67;;;;;;;32.50;60.93;99837.91;1791636;80;21090;-73
2022/07/15 08:47:49;;;;;;;5.65;4.40;;;;;;;32.43;66.43;99834.17;1765329;80;21493;-74
2022/07/15 08:50:17;;;;;;;4.65;3.10;;;;;;;32.54;65.36;99831.33;1739913;80;20953;-74
2022/07/15 08:52:46;;;;;;;6.78;3.75;;;;;;;32.71;63.20;99836.79;1791780;80;21525;-74
2022/07/15 08:55:15;;;;;;;7.55;3.37;;;;;;;32.72;63.08;99830.88;1791811;80;21004;-75
2022/07/15 08:57:50;;;;;;;4.20;3.15;;;;;;;32.77;61.40;99841.66;1791748;80;21020;-74
2022/07/15 09:00:17;;;;;;;6.58;3.27;;;;;;;32.71;60.31;99834.80;1790702;79;21043;-72
2022/07/15 09:02:44;;;;;;;3.80;2.98;;;;;;;32.69;59.41;99839.91;1791252;80;20978;-71
2022/07/15 09:05:33;;;;;;;4.83;3.05;;;;;;;32.75;59.75;99832.77;1795900;80;21040;-71
2022/07/15 09:08:15;;;;;;;4.80;3.40;;;;;;;32.91;63.72;99821.34;1795985;80;21084;-71
2022/07/15 09:10:52;;;;;;;;;;;;;;;33.09;60.47;99825.00;1798446;80;21021;-69
2022/07/15 09:13:40;;;;;;;5.75;3.25;;;;;;;33.12;59.06;99822.95;1792692;80;20159;-70
2022/07/15 09:16:09;;;;;;;13.32;3.80;;;;;;;33.21;59.81;99817.39;1796269;79;21005;-71
2022/07/15 09:18:42;;;;;;;5.40;3.37;;;;;;;33.20;58.58;99813.77;1770081;80;20972;-71
2022/07/15 09:21:25;;;;;;;5.62;3.30;;;;;;;33.22;58.59;99807.81;1702589;84;21579;-71
2022/07/15 09:23:56;;;;;;;7.17;3.08;;;;;;;33.35;62.74;99808.83;1694200;84;21053;-70
2022/07/15 09:26:36;;;;;;;4.33;3.15;;;;;;;33.59;59.93;99809.15;1667753;85;21071;-70
2022/07/15 09:33:34;;;;;;;7.70;3.45;;;;;;;33.55;54.56;99823.56;1665110;84;21061;-71
2022/07/15 09:34:24;;;;;;;7.33;3.70;;;;;;;33.57;60.93;99803.02;1681980;85;21371;-71
2022/07/15 09:36:57;;;;;;;7.70;3.85;;;;;;;33.86;60.86;99798.16;1696679;84;21147;-70
2022/07/15 09:39:24;;;;;;;23.52;15.38;;;;;;;34.12;59.61;99797.83;1745352;82;21582;-71
2022/07/15 09:41:52;;;;;;;16.70;8.05;;;;;;;34.40;60.88;99787.84;1746640;82;21026;-72
2022/07/15 09:44:21;;;;;;;6.97;3.72;;;;;;;34.56;56.95;99790.89;1747487;81;21019;-73
2022/07/15 09:46:57;;;;;;;3.58;3.22;;;;;;;34.64;51.94;99789.80;1745020;82;21026;-71
2022/07/15 09:49:32;;;;;;;3.05;2.72;;;;;;;34.50;51.68;99785.24;1744752;82;20990;-71
2022/07/15 09:52:10;;;;;;;7.95;4.17;;;;;;;34.42;54.14;99793.95;1744622;82;21115;-73
2022/07/15 09:54:41;;;;;;;5.33;3.22;;;;;;;34.43;51.31;99789.16;1744797;82;21070;-70
2022/07/15 09:57:14;;;;;;;5.15;2.80;;;;;;;34.45;51.27;99791.63;1672713;85;21072;-71
2022/07/15 09:59:43;;;;;;;2.92;2.60;;;;;;;34.50;50.80;99783.02;1616233;89;21066;-71
2022/07/15 10:02:22;;;;;;;4.62;3.27;;;;;;;34.57;52.23;99782.72;1596554;89;21114;-76
2022/07/15 10:04:51;;;;;;;3.72;3.05;;;;;;;34.76;51.75;99776.70;1615037;89;21057;-76
2022/07/15 10:07:18;;;;;;;3.87;3.08;;;;;;;34.72;49.23;99780.52;1617669;89;21634;-72
2022/07/15 10:09:45;;;;;;;10.00;3.47;;;;;;;34.27;46.72;99774.06;1617931;89;21026;-72
2022/07/15 10:12:19;;;;;;;15.65;3.52;;;;;;;33.67;48.49;99785.90;1617734;89;21583;-73
2022/07/15 10:15:15;;;;;;;8.25;3.00;;;;;;;33.47;49.86;99773.97;1617855;89;21065;-74
2022/07/15 10:18:09;;;;;;;7.22;3.42;;;;;;;33.44;50.40;99770.41;1585970;89;21059;-72
2022/07/15 10:20:49;;;;;;;;;;;;;;;33.53;53.49;99775.42;1566706;92;21172;-76
2022/07/15 10:23:36;;;;;;;3.47;3.00;;;;;;;33.67;51.27;99778.08;1548251;92;20178;-75
2022/07/15 10:26:47;;;;;;;5.47;3.00;;;;;;;33.79;52.02;99774.59;1552675;92;21039;-72
2022/07/15 10:29:15;;;;;;;3.83;3.15;;;;;;;33.91;50.72;99766.32;1518188;94;21061;-72
2022/07/15 10:31:42;;;;;;;9.70;3.52;;;;;;;34.06;53.02;99770.55;1526069;94;21053;-73
2022/07/15 10:34:15;;;;;;;4.70;3.10;;;;;;;33.91;50.99;99764.92;1485330;94;21029;-73
2022/07/15 10:36:53;;;;;;;25.05;4.85;;;;;;;33.44;48.34;99767.61;1517522;94;21091;-72
2022/07/15 10:39:26;;;;;;;8.45;3.37;;;;;;;32.81;49.59;99772.66;1462640;96;21173;-76
2022/07/15 10:42:03;;;;;;;5.45;3.25;;;;;;;32.29;52.10;99771.92;1454132;98;21092;-73
2022/07/15 10:44:36;;;;;;;7.17;3.05;;;;;;;32.08;54.51;99768.87;1465325;96;21029;-73
2022/07/15 10:47:18;;;;;;;3.20;2.92;;;;;;;32.23;56.83;99773.20;1469731;98;21102;-73
2022/07/15 10:49:47;;;;;;;6.33;3.10;;;;;;;32.45;57.06;99768.92;1443512;98;21137;-73
2022/07/15 10:52:38;;;;;;;4.95;3.22;;;;;;;32.46;59.78;99767.78;1463628;97;21579;-74
2022/07/15 10:55:16;;;;;;;5.03;4.10;;;;;;;32.44;61.73;99760.30;1470327;97;21265;-72
2022/07/15 10:57:52;;;;;;;5.30;3.45;;;;;;;32.36;64.68;99756.30;1467372;98;21157;-73
2022/07/15 11:00:33;;;;;;;5.25;3.10;;;;;;;32.20;61.20;99755.69;1526068;93;21090;-71
2022/07/15 11:03:12;;;;;;;6.35;3.30;;;;;;;32.04;65.60;99756.10;1464427;97;21589;-70
2022/07/15 11:05:57;;;;;;;5.08;3.30;;;;;;;32.27;66.03;99756.04;1463912;97;21147;-70
2022/07/15 11:08:40;;;;;;;6.05;3.30;;;;;;;32.48;66.74;99751.49;1455870;97;21103;-69
2022/07/15 11:11:22;;;;;;;10.00;4.90;;;;;;;32.80;67.63;99741.64;1445934;98;21084;-69
2022/07/15 11:13:50;;;;;;;6.60;4.25;;;;;;;33.10;63.49;99741.23;1466235;97;21165;-71
2022/07/15 11:16:20;;;;;;;3.33;3.00;;;;;;;33.40;65.28;99740.02;1475971;94;21151;-70
2022/07/15 11:18:49;;;;;;;5.92;2.85;;;;;;;33.65;64.09;99735.52;1529649;94;21119;-69
2022/07/15 11:21:17;;;;;;;4.47;3.40;;;;;;;33.82;57.11;99736.06;1527878;94;21038;-70
2022/07/15 11:23:44;;;;;;;6.05;3.40;;;;;;;33.78;54.38;99738.71;1511016;94;21089;-71
2022/07/15 11:26:13;;;;;;;9.40;3.40;;;;;;;33.71;57.06;99734.78;1516053;94;21620;-69
2022/07/15 11:28:51;;;;;;;5.33;3.08;;;;;;;33.85;59.82;99737.61;1514809;94;21021;-70
2022/07/15 11:31:18;;;;;;;6.80;3.00;;;;;;;33.98;58.09;99739.98;1513129;94;21591;-71
2022/07/15 11:33:45;;;;;;;6.20;2.92;;;;;;;34.07;56.49;99730.69;1487140;95;21092;-70
2022/07/15 11:36:21;;;;;;;3.40;2.80;;;;;;;34.20;53.40;99731.09;1532124;92;21200;-71
2022/07/15 11:38:49;;;;;;;5.37;3.30;;;;;;;34.23;53.58;99733.23;1552328;92;21113;-71
2022/07/15 11:46:54;;;;;;;4.22;2.65;;;;;;;33.69;51.53;99732.31;1522261;94;21187;-70